createdAt,value
2023-06-30T00:03:46.489Z,72.05
2023-06-30T00:08:52.129Z,76.25
2023-06-30T00:13:56.504Z,77.57
2023-06-30T00:18:59.194Z,76.50
2023-06-30T00:24:05.479Z,77.37
2023-06-30T00:29:08.614Z,77.25
2023-06-30T00:34:11.395Z,76.61
2023-06-30T00:39:13.989Z,74.97
2023-06-30T00:44:16.340Z,78.75
2023-06-30T00:49:19.508Z,77.27
2023-06-30T00:54:21.865Z,78.41
2023-06-30T00:59:25.099Z,77.90
2023-06-30T01:05:01.193Z,77.68
2023-06-30T01:10:15.444Z,75.99
2023-06-30T01:15:18.648Z,76.07
2023-06-30T01:20:22.867Z,78.60
2023-06-30T01:25:30.436Z,79.02
2023-06-30T01:30:33.602Z,79.66
2023-06-30T01:35:36.231Z,78.65
2023-06-30T01:40:38.654Z,79.94
2023-06-30T01:45:41.626Z,81.03
2023-06-30T01:50:47.272Z,80.27
2023-06-30T01:55:50.997Z,81.76
2023-06-30T02:00:53.269Z,80.66
2023-06-30T02:05:55.633Z,78.14
2023-06-30T02:10:57.915Z,77.01
2023-06-30T02:16:00.416Z,81.45
2023-06-30T02:21:02.662Z,83.43
2023-06-30T02:26:04.990Z,81.99
2023-06-30T02:31:07.333Z,82.88
2023-06-30T02:36:10.902Z,83.04
2023-06-30T02:41:13.199Z,81.59
2023-06-30T02:46:15.660Z,84.46
2023-06-30T02:51:18.658Z,84.36
2023-06-30T02:56:20.883Z,86.16
2023-06-30T03:01:23.819Z,80.09
2023-06-30T03:06:27.055Z,84.64
2023-06-30T03:11:29.476Z,84.85
2023-06-30T03:16:32.642Z,82.69
2023-06-30T03:21:34.981Z,88.22
2023-06-30T03:26:37.258Z,87.54
2023-06-30T03:31:48.083Z,87.90
2023-06-30T03:36:51.249Z,85.03
2023-06-30T03:41:54.546Z,82.94
2023-06-30T03:46:56.857Z,83.27
2023-06-30T03:52:00.506Z,81.59
2023-06-30T03:57:02.858Z,83.64
2023-06-30T04:02:05.476Z,81.96
2023-06-30T04:07:07.838Z,83.08
2023-06-30T04:12:10.851Z,83.11
2023-06-30T04:17:13.231Z,82.53
2023-06-30T04:22:15.625Z,84.09
2023-06-30T04:27:18.794Z,86.20
2023-06-30T04:32:21.082Z,83.69
2023-06-30T04:37:24.467Z,84.85
2023-06-30T04:42:29.741Z,85.47
2023-06-30T04:47:32.118Z,87.26
2023-06-30T04:52:34.349Z,89.56
2023-06-30T04:57:36.675Z,90.91
2023-06-30T05:02:38.983Z,92.34
2023-06-30T05:07:41.474Z,92.87
2023-06-30T05:12:43.825Z,91.62
2023-06-30T05:17:46.225Z,91.37
2023-06-30T05:22:48.501Z,92.52
2023-06-30T05:27:50.774Z,91.28
2023-06-30T05:32:53.020Z,90.14
2023-06-30T05:37:56.802Z,92.11
2023-06-30T05:42:59.053Z,91.76
2023-06-30T05:48:01.510Z,92.20
2023-06-30T05:53:04.394Z,91.10
2023-06-30T05:58:06.844Z,91.52
2023-06-30T06:03:10.023Z,91.37
2023-06-30T06:08:12.419Z,91.87
2023-06-30T06:13:32.929Z,89.11
2023-06-30T06:18:35.898Z,90.67
2023-06-30T06:23:38.209Z,89.48
2023-06-30T06:28:40.388Z,91.08
2023-06-30T06:33:43.745Z,87.62
2023-06-30T06:38:45.993Z,87.21
2023-06-30T06:43:48.180Z,85.80
2023-06-30T06:48:50.540Z,88.16
2023-06-30T06:53:55.029Z,85.08
2023-06-30T06:58:57.172Z,82.63
2023-06-30T07:03:59.366Z,82.36
2023-06-30T07:09:01.677Z,81.91
2023-06-30T07:14:03.988Z,83.88
2023-06-30T07:19:06.382Z,85.10
2023-06-30T07:24:08.896Z,87.82
2023-06-30T07:29:11.227Z,87.43
2023-06-30T07:34:13.511Z,85.01
2023-06-30T07:39:15.800Z,81.58
2023-06-30T07:44:19.430Z,84.56
2023-06-30T07:49:23.156Z,85.11
2023-06-30T07:54:25.463Z,85.25
2023-06-30T07:59:27.707Z,85.78
2023-06-30T08:04:31.870Z,86.12
2023-06-30T08:09:34.434Z,87.27
2023-06-30T08:14:39.394Z,87.00
2023-06-30T08:19:48.703Z,88.09
2023-06-30T08:24:52.459Z,87.28
2023-06-30T08:29:54.614Z,86.69
2023-06-30T08:34:56.895Z,87.93
2023-06-30T08:39:59.222Z,86.54
2023-06-30T08:45:04.421Z,83.85
2023-06-30T08:50:08.783Z,88.57
2023-06-30T08:55:11.874Z,87.80
2023-06-30T09:00:15.314Z,81.62
2023-06-30T09:05:17.662Z,86.12
2023-06-30T09:10:20.227Z,85.69
2023-06-30T09:15:23.090Z,86.90
2023-06-30T09:20:25.448Z,87.30
2023-06-30T09:25:27.640Z,86.75
2023-06-30T09:30:41.168Z,86.40
2023-06-30T09:35:49.292Z,86.49
2023-06-30T09:40:52.315Z,86.74
2023-06-30T09:46:02.635Z,84.84
2023-06-30T09:51:05.629Z,84.39
2023-06-30T09:56:09.721Z,77.83
2023-06-30T10:01:11.964Z,81.35
2023-06-30T10:06:14.491Z,81.27
2023-06-30T10:11:17.242Z,81.70
2023-06-30T10:16:23.178Z,75.29
2023-06-30T10:21:26.603Z,80.37
2023-06-30T10:26:30.442Z,78.35
2023-06-30T10:31:34.472Z,80.92
2023-06-30T10:36:37.950Z,77.54
2023-06-30T10:41:50.734Z,80.18
2023-06-30T10:46:55.014Z,77.51
2023-06-30T10:52:00.501Z,78.16
2023-06-30T10:57:15.799Z,75.57
2023-06-30T11:02:23.223Z,76.16
2023-06-30T11:07:28.297Z,77.20
2023-06-30T11:12:54.871Z,76.99
2023-06-30T11:17:56.973Z,76.75
2023-06-30T11:23:07.805Z,75.31
2023-06-30T11:28:13.345Z,73.95
2023-06-30T11:33:16.055Z,72.54
2023-06-30T11:38:18.404Z,70.66
2023-06-30T11:43:23.252Z,67.02
2023-06-30T11:48:25.639Z,70.14
2023-06-30T11:53:31.818Z,74.62
2023-06-30T11:58:34.058Z,74.12
2023-06-30T12:03:36.423Z,76.34
2023-06-30T12:08:40.125Z,75.70
2023-06-30T12:13:43.202Z,75.98
2023-06-30T12:18:49.122Z,78.77
2023-06-30T12:23:51.382Z,80.94
2023-06-30T12:28:53.749Z,78.91
2023-06-30T12:33:56.778Z,80.12
2023-06-30T12:38:59.002Z,79.21
2023-06-30T12:44:02.305Z,78.06
2023-06-30T12:49:06.422Z,82.53
2023-06-30T12:54:08.639Z,79.68
2023-06-30T12:59:10.910Z,73.61
2023-06-30T13:04:13.339Z,73.20
2023-06-30T13:09:15.624Z,72.32
2023-06-30T13:14:18.268Z,78.54
2023-06-30T13:19:20.857Z,76.46
2023-06-30T13:24:27.085Z,80.31
2023-06-30T13:29:30.202Z,78.44
2023-06-30T13:34:32.347Z,74.66
2023-06-30T13:39:37.217Z,76.44
2023-06-30T13:44:39.654Z,74.57
2023-06-30T13:49:41.909Z,73.03
2023-06-30T13:54:44.089Z,71.77
2023-06-30T13:59:46.409Z,72.39
2023-06-30T14:04:48.753Z,69.76
2023-06-30T14:09:51.727Z,71.62
2023-06-30T14:14:54.316Z,69.71
2023-06-30T14:19:56.602Z,72.42
2023-06-30T14:24:58.810Z,69.89
2023-06-30T14:30:01.165Z,68.30
2023-06-30T14:35:04.841Z,68.22
2023-06-30T14:40:08.052Z,66.90
2023-06-30T14:45:10.756Z,67.38
2023-06-30T14:50:13.154Z,66.78
2023-06-30T14:55:15.475Z,63.96
2023-06-30T15:00:18.244Z,64.94
2023-06-30T15:05:20.755Z,64.85
2023-06-30T15:10:23.871Z,73.69
2023-06-30T15:15:26.137Z,76.59
2023-06-30T15:20:29.077Z,76.80
2023-06-30T15:25:32.140Z,78.24
2023-06-30T15:30:35.906Z,78.55
2023-06-30T15:35:38.144Z,79.61
2023-06-30T15:40:41.824Z,78.46
2023-06-30T15:45:44.109Z,86.09
2023-06-30T15:50:48.013Z,85.93
2023-06-30T15:55:50.661Z,84.87
2023-06-30T16:00:52.885Z,86.01
2023-06-30T16:05:55.230Z,83.97
2023-06-30T16:10:57.514Z,83.80
2023-06-30T16:16:00.946Z,88.80
2023-06-30T16:21:03.414Z,86.07
2023-06-30T16:26:05.699Z,85.49
2023-06-30T16:31:11.283Z,85.37
2023-06-30T16:36:13.577Z,85.83
2023-06-30T16:41:15.810Z,85.83
2023-06-30T16:46:18.084Z,84.87
2023-06-30T16:51:20.372Z,84.38
2023-06-30T16:56:23.114Z,83.81
2023-06-30T17:01:25.501Z,84.95
2023-06-30T17:06:28.051Z,87.10
2023-06-30T17:11:31.864Z,84.94
2023-06-30T17:16:34.212Z,84.84
2023-06-30T17:21:40.200Z,83.74
2023-06-30T17:26:42.640Z,85.13
2023-06-30T17:31:44.935Z,82.34
2023-06-30T17:36:47.077Z,83.94
2023-06-30T17:41:49.337Z,84.98
2023-06-30T17:46:52.731Z,79.40
2023-06-30T17:51:55.436Z,86.98
2023-06-30T17:56:57.943Z,82.94
2023-06-30T18:02:00.379Z,79.08
2023-06-30T18:07:05.688Z,80.05
2023-06-30T18:12:09.519Z,81.99
2023-06-30T18:17:12.587Z,82.67
2023-06-30T18:22:15.252Z,81.89
2023-06-30T18:27:19.526Z,83.65
2023-06-30T18:32:21.852Z,82.75
2023-06-30T18:37:24.148Z,84.16
2023-06-30T18:42:26.287Z,83.46
2023-06-30T18:47:28.583Z,80.71
2023-06-30T18:52:31.450Z,80.44
2023-06-30T18:57:36.636Z,80.19
2023-06-30T19:02:38.859Z,80.19
2023-06-30T19:07:41.200Z,81.63
2023-06-30T19:12:43.472Z,81.43
2023-06-30T19:17:45.725Z,81.72
2023-06-30T19:22:47.889Z,81.25
2023-06-30T19:27:50.022Z,82.53
2023-06-30T19:32:52.225Z,80.41
2023-06-30T19:37:54.417Z,81.05
2023-06-30T19:42:56.835Z,80.98
2023-06-30T19:47:59.005Z,81.98
2023-06-30T19:53:03.718Z,80.73
2023-06-30T19:58:07.688Z,81.11
2023-06-30T20:03:12.313Z,80.93
2023-06-30T20:08:15.235Z,81.30
2023-06-30T20:13:17.434Z,80.30
2023-06-30T20:18:19.772Z,80.33
2023-06-30T20:23:21.979Z,80.26
2023-06-30T20:28:24.234Z,80.13
2023-06-30T20:33:26.669Z,81.12
2023-06-30T20:38:29.018Z,81.32
2023-06-30T20:43:31.301Z,80.31
2023-06-30T20:53:35.838Z,80.06
2023-06-30T20:58:38.093Z,81.03
2023-06-30T21:03:40.449Z,81.18
2023-06-30T21:08:42.706Z,80.01
2023-06-30T21:13:44.985Z,80.52
2023-06-30T21:18:47.280Z,81.54
2023-06-30T21:23:49.582Z,80.43
2023-06-30T21:28:52.724Z,80.74
2023-06-30T21:33:55.124Z,81.30
2023-06-30T21:38:57.221Z,81.94
2023-06-30T21:43:59.342Z,82.02
2023-06-30T21:49:01.522Z,81.72
2023-06-30T21:54:07.397Z,81.63
2023-06-30T21:59:09.784Z,80.56
2023-06-30T22:04:12.336Z,83.10
2023-06-30T22:09:16.526Z,82.64
2023-06-30T22:14:19.244Z,82.50
2023-06-30T22:19:21.637Z,82.76
2023-06-30T22:24:23.797Z,81.83
2023-06-30T22:29:26.152Z,81.91
2023-06-30T22:34:28.464Z,81.99
2023-06-30T22:39:30.684Z,82.01
2023-06-30T22:44:32.812Z,82.29
2023-06-30T22:49:35.059Z,81.71
2023-06-30T22:54:37.192Z,82.80
2023-06-30T22:59:39.436Z,83.31
2023-06-30T23:04:41.712Z,83.20
2023-06-30T23:09:44.232Z,82.67
2023-06-30T23:14:46.511Z,81.91
2023-06-30T23:19:51.496Z,81.93
2023-06-30T23:24:53.954Z,80.56
2023-06-30T23:29:58.120Z,81.30
2023-06-30T23:35:00.475Z,81.07
2023-06-30T23:40:02.754Z,80.29
2023-06-30T23:45:05.565Z,81.87
2023-06-30T23:50:08.170Z,81.29
2023-06-30T23:55:13.013Z,83.27
